createdAt,value
2022-12-01T08:52:46.102Z,281.63
2022-12-01T08:55:12.805Z,306.05
2022-12-01T08:57:39.492Z,295.42
2022-12-01T09:00:06.839Z,331.02
2022-12-01T09:02:33.552Z,320.30
2022-12-01T09:05:00.276Z,338.83
2022-12-01T09:07:27.203Z,317.58
2022-12-01T09:09:54.033Z,325.48
2022-12-01T09:12:20.719Z,326.73
2022-12-01T09:14:49.491Z,308.63
2022-12-01T09:17:17.367Z,340.58
2022-12-01T09:19:44.702Z,320.23
2022-12-01T09:22:12.047Z,283.38
2022-12-01T09:24:39.046Z,285.65
2022-12-01T09:27:06.015Z,292.23
2022-12-01T09:29:32.839Z,281.55
2022-12-01T09:32:00.454Z,290.30
2022-12-01T09:34:28.892Z,274.95
2022-12-01T09:36:57.654Z,287.35
2022-12-01T09:39:25.237Z,306.52
2022-12-01T09:42:16.004Z,282.98
2022-12-01T09:44:51.003Z,293.90
2022-12-01T09:47:23.630Z,304.65
2022-12-01T09:49:54.387Z,305.33
2022-12-01T09:52:23.715Z,302.35
2022-12-01T09:54:50.771Z,287.60
2022-12-01T09:57:33.874Z,275.50
2022-12-01T10:00:05.144Z,294.92
2022-12-01T10:03:29.768Z,283.38
2022-12-01T10:06:28.556Z,254.05
2022-12-01T10:09:18.578Z,251.55
2022-12-01T10:11:47.112Z,259.10
2022-12-01T10:14:20.317Z,260.30
2022-12-01T10:17:14.157Z,239.93
2022-12-01T10:19:52.810Z,269.08
2022-12-01T10:22:39.607Z,260.27
2022-12-01T10:25:24.814Z,250.02
2022-12-01T10:28:06.649Z,289.13
2022-12-01T10:30:40.763Z,264.55
2022-12-01T10:33:25.528Z,253.18
2022-12-01T10:35:52.996Z,248.27
2022-12-01T10:38:27.435Z,232.40
2022-12-01T10:40:58.057Z,235.73
2022-12-01T10:43:47.954Z,227.57
2022-12-01T10:46:23.782Z,231.70
2022-12-01T10:48:58.747Z,226.07
2022-12-01T10:51:27.833Z,227.30
2022-12-01T10:54:11.328Z,225.68
2022-12-01T10:56:40.692Z,241.48
2022-12-01T10:59:24.354Z,234.70
2022-12-01T11:01:51.364Z,241.18
2022-12-01T11:04:36.888Z,229.30
2022-12-01T11:07:04.197Z,244.70
2022-12-01T11:09:31.516Z,200.43
2022-12-01T11:12:01.088Z,192.15
2022-12-01T11:14:48.324Z,214.68
2022-12-01T11:17:22.386Z,200.57
2022-12-01T11:19:49.531Z,202.07
2022-12-01T11:22:21.160Z,258.15
2022-12-01T11:24:53.827Z,235.50
2022-12-01T11:27:24.629Z,236.15
2022-12-01T11:30:05.900Z,264.50
2022-12-01T11:32:39.005Z,300.38
2022-12-01T11:35:19.408Z,393.58
2022-12-01T11:38:13.328Z,412.00
2022-12-01T11:40:50.655Z,362.60
2022-12-01T11:43:27.473Z,409.83
2022-12-01T11:45:56.148Z,411.85
2022-12-01T11:48:28.696Z,411.50
2022-12-01T11:51:10.225Z,400.73
2022-12-01T11:53:39.932Z,412.45
2022-12-01T11:56:24.616Z,381.73
2022-12-01T11:58:58.976Z,386.75
2022-12-01T12:01:33.820Z,362.70
2022-12-01T12:04:13.883Z,320.98
2022-12-01T12:06:59.141Z,308.48
2022-12-01T12:09:55.636Z,306.02
2022-12-01T12:12:39.772Z,261.13
2022-12-01T12:15:34.054Z,258.65
2022-12-01T12:18:41.769Z,232.93
2022-12-01T12:21:27.759Z,229.77
2022-12-01T12:24:19.040Z,233.18
2022-12-01T12:27:04.563Z,241.50
2022-12-01T12:29:34.355Z,217.50
2022-12-01T12:32:19.040Z,210.30
2022-12-01T12:35:14.208Z,221.25
2022-12-01T12:38:11.988Z,219.32
2022-12-01T12:41:15.441Z,219.35
2022-12-01T12:43:46.536Z,225.07
2022-12-01T12:46:27.494Z,217.98
2022-12-01T12:49:20.415Z,228.63
2022-12-01T12:52:12.788Z,234.00
2022-12-01T12:55:04.365Z,209.00
2022-12-01T12:57:37.938Z,173.65
2022-12-01T13:00:13.172Z,206.52
2022-12-01T13:03:06.148Z,177.00
2022-12-01T13:05:46.991Z,186.63
2022-12-01T13:08:24.181Z,165.57
2022-12-01T13:11:13.023Z,176.43
2022-12-01T13:14:01.688Z,178.85
2022-12-01T13:16:34.476Z,186.02
2022-12-01T13:19:08.161Z,195.07
2022-12-01T13:21:40.715Z,225.73
2022-12-01T13:24:10.647Z,205.13
2022-12-01T13:26:39.418Z,205.95
2022-12-01T13:29:07.964Z,202.15
2022-12-01T13:31:46.757Z,197.52
2022-12-01T13:34:33.400Z,195.38
2022-12-01T13:37:00.352Z,216.40
2022-12-01T13:39:35.396Z,200.70
2022-12-01T13:42:22.787Z,176.85
2022-12-01T13:47:30.939Z,158.27
2022-12-01T13:50:17.731Z,183.82
2022-12-01T13:52:49.960Z,192.05
2022-12-01T13:55:16.577Z,186.05
2022-12-01T13:57:58.541Z,194.52
2022-12-01T14:00:31.446Z,209.40
2022-12-01T14:03:16.303Z,208.88
2022-12-01T14:05:53.402Z,209.45
2022-12-01T14:08:27.530Z,203.18
2022-12-01T14:11:06.210Z,217.63
2022-12-01T14:13:47.185Z,252.77
2022-12-01T14:16:14.967Z,278.77
2022-12-01T14:18:50.444Z,284.65
2022-12-01T14:21:17.571Z,277.63
2022-12-01T14:24:05.451Z,310.02
2022-12-01T14:26:34.638Z,323.67
2022-12-01T14:29:01.251Z,333.55
2022-12-01T14:31:34.160Z,316.77
2022-12-01T14:34:07.783Z,309.17
2022-12-01T14:36:51.739Z,310.33
2022-12-01T14:39:36.390Z,276.25
2022-12-01T14:42:12.740Z,318.38
2022-12-01T14:44:51.402Z,322.95
2022-12-01T14:47:27.232Z,356.00
2022-12-01T14:50:19.622Z,347.60
2022-12-01T14:52:55.186Z,376.83
2022-12-01T14:55:37.019Z,409.35
2022-12-01T14:58:07.064Z,383.42
2022-12-01T15:00:36.824Z,369.48
2022-12-01T15:03:08.902Z,423.13
2022-12-01T15:05:41.856Z,424.92
2022-12-01T15:08:41.036Z,426.15
2022-12-01T15:11:19.549Z,450.85
2022-12-01T15:13:52.658Z,448.67
2022-12-01T15:16:22.186Z,418.58
2022-12-01T15:18:49.567Z,386.35
2022-12-01T15:21:23.209Z,381.15
2022-12-01T15:24:23.988Z,419.52
